Archival Weather

Sharurah

Sharurah, Saudi Arabia (OESH)

Report from: Thursday, December 7, 2023 3:00 AM +03
Current time: Saturday, February 24, 2024 10:05 PM +03

Current weather – Weather history – Daily summaries
Weather forecast

Temperature17.0°C (62.6°F)
Dew point6.0°C (42.8°F)
Winds 4 kts (2.1 m/s, 4.6 mph) East (80°)
Clouds Sky clear
Altimeter30.09 in.Hg (1019 mB)
Relative humidity48 %
Density altitude179 ft. (54 m)
Remarks Ceiling and visibility OK
No significant changes expected in the next two hours
Flight conditions Visual Meteorological Conditions
Raw dataOESH 070000Z 08004KT CAVOK 17/06 Q1019 NOSIG
An error has occurred. This application may no longer respond until reloaded. Reload 🗙